createdAt,value
2018-01-10T00:00:18.419Z,18.30
2018-01-10T00:01:18.411Z,18.40
2018-01-10T00:02:18.404Z,17.50
2018-01-10T00:03:18.396Z,20.50
2018-01-10T00:04:18.389Z,19.30
2018-01-10T00:05:18.381Z,16.70
2018-01-10T00:06:18.378Z,20.70
2018-01-10T00:07:18.371Z,18.50
2018-01-10T00:08:18.364Z,17.00
2018-01-10T00:09:18.356Z,17.20
2018-01-10T00:10:18.348Z,18.00
2018-01-10T00:11:18.341Z,19.30
2018-01-10T00:12:18.334Z,17.80
2018-01-10T00:13:18.327Z,17.50
2018-01-10T00:14:18.316Z,16.40
2018-01-10T00:15:18.307Z,17.40
2018-01-10T00:16:18.300Z,19.60
2018-01-10T00:17:18.292Z,17.60
2018-01-10T00:18:18.286Z,18.10
2018-01-10T00:19:18.278Z,19.40
2018-01-10T00:20:18.270Z,16.60
2018-01-10T00:21:18.262Z,17.90
2018-01-10T00:22:18.259Z,17.80
2018-01-10T00:23:18.252Z,17.80
2018-01-10T00:24:18.244Z,18.90
2018-01-10T00:25:18.236Z,18.60
2018-01-10T00:26:18.233Z,17.40
2018-01-10T00:27:18.226Z,18.50
2018-01-10T00:28:18.214Z,18.40
2018-01-10T00:29:18.206Z,17.50
2018-01-10T00:30:18.195Z,19.20
2018-01-10T00:31:18.188Z,17.30
2018-01-10T00:32:18.182Z,18.20
2018-01-10T00:33:18.176Z,18.70
2018-01-10T00:34:18.168Z,18.60
2018-01-10T00:35:18.163Z,16.60
2018-01-10T00:36:18.154Z,17.10
2018-01-10T00:37:18.147Z,18.60
2018-01-10T00:38:18.135Z,19.30
2018-01-10T00:39:18.128Z,19.10
2018-01-10T00:40:18.120Z,18.30
2018-01-10T00:41:18.112Z,20.60
2018-01-10T00:42:18.105Z,17.60
2018-01-10T00:43:18.096Z,19.70
2018-01-10T00:44:18.090Z,18.50
2018-01-10T00:45:18.082Z,19.30
2018-01-10T00:46:18.115Z,18.20
2018-01-10T00:47:18.070Z,17.50
2018-01-10T00:48:18.063Z,18.30
2018-01-10T00:49:18.054Z,17.50
2018-01-10T00:50:18.046Z,17.20
2018-01-10T00:51:18.039Z,18.10
2018-01-10T00:52:18.032Z,17.00
2018-01-10T00:53:18.025Z,18.10
2018-01-10T00:54:18.015Z,18.20
2018-01-10T00:55:18.003Z,19.40
2018-01-10T00:56:17.996Z,19.60
2018-01-10T00:57:17.988Z,17.50
2018-01-10T00:58:17.980Z,18.70
2018-01-10T00:59:17.973Z,18.00
2018-01-10T01:00:17.964Z,18.30
2018-01-10T01:01:17.960Z,17.70
2018-01-10T01:02:17.957Z,19.90
2018-01-10T01:03:17.946Z,18.90
2018-01-10T01:04:17.937Z,17.70
2018-01-10T01:05:17.928Z,18.80
2018-01-10T01:06:17.922Z,18.80
2018-01-10T01:07:17.914Z,18.00
2018-01-10T01:08:17.907Z,17.80
2018-01-10T01:09:17.898Z,18.60
2018-01-10T01:10:17.890Z,17.60
2018-01-10T01:11:17.879Z,18.30
2018-01-10T01:12:17.871Z,20.40
2018-01-10T01:13:17.863Z,18.30
2018-01-10T01:14:17.855Z,18.70
2018-01-10T01:15:17.848Z,19.00
2018-01-10T01:16:17.841Z,17.70
2018-01-10T01:17:17.832Z,17.10
2018-01-10T01:18:17.829Z,19.60
2018-01-10T01:19:17.822Z,18.80
2018-01-10T01:20:17.814Z,21.50
2018-01-10T01:21:17.806Z,18.20
2018-01-10T01:22:17.799Z,17.60
2018-01-10T01:23:17.792Z,17.00
2018-01-10T01:24:17.784Z,19.50
2018-01-10T01:25:17.776Z,18.80
2018-01-10T01:26:17.765Z,17.80
2018-01-10T01:27:17.759Z,17.30
2018-01-10T01:28:17.750Z,18.80
2018-01-10T01:29:17.741Z,17.90
2018-01-10T01:30:17.736Z,16.80
2018-01-10T01:31:17.727Z,21.00
2018-01-10T01:32:17.720Z,17.30
2018-01-10T01:33:17.713Z,16.80
2018-01-10T01:34:17.709Z,16.00
2018-01-10T01:35:17.703Z,17.90
2018-01-10T01:36:17.695Z,17.40
2018-01-10T01:37:17.687Z,16.80
2018-01-10T01:38:17.677Z,17.30
2018-01-10T01:39:17.670Z,17.50
2018-01-10T01:40:17.661Z,18.50
2018-01-10T01:41:17.654Z,16.40
2018-01-10T01:42:17.650Z,16.60
2018-01-10T01:43:17.644Z,17.80
2018-01-10T01:44:17.636Z,17.80
2018-01-10T01:45:17.628Z,17.60
2018-01-10T01:46:17.621Z,18.00
2018-01-10T01:47:17.614Z,17.70
2018-01-10T01:48:17.608Z,16.70
2018-01-10T01:49:17.599Z,19.20
2018-01-10T01:50:17.589Z,18.10
2018-01-10T01:51:17.580Z,18.30
2018-01-10T01:52:17.573Z,19.30
2018-01-10T01:53:17.565Z,18.00
2018-01-10T01:54:17.558Z,20.40
2018-01-10T01:55:17.551Z,17.20
2018-01-10T01:56:17.544Z,17.60
2018-01-10T01:57:17.538Z,19.00
2018-01-10T01:58:17.533Z,17.60
2018-01-10T01:59:17.526Z,17.80
2018-01-10T02:00:17.519Z,17.60
2018-01-10T02:01:17.517Z,16.90
2018-01-10T02:02:17.504Z,16.60
2018-01-10T02:03:17.498Z,16.80
2018-01-10T02:04:17.490Z,20.40
2018-01-10T02:05:17.482Z,17.80
2018-01-10T02:06:17.471Z,21.80
2018-01-10T02:07:17.463Z,18.00
2018-01-10T02:08:17.457Z,18.00
2018-01-10T02:09:17.449Z,18.30
2018-01-10T02:10:17.442Z,17.50
2018-01-10T02:11:17.436Z,18.10
2018-01-10T02:12:17.428Z,18.50
2018-01-10T02:13:17.420Z,17.90
2018-01-10T02:14:17.417Z,17.30
2018-01-10T02:15:17.410Z,17.80
2018-01-10T02:16:17.404Z,16.30
2018-01-10T02:17:17.396Z,18.40
2018-01-10T02:18:17.388Z,17.10
2018-01-10T02:19:17.382Z,18.10
2018-01-10T02:20:17.378Z,17.10
2018-01-10T02:21:17.369Z,16.60
2018-01-10T02:22:17.355Z,17.00
2018-01-10T02:23:17.348Z,17.10
2018-01-10T02:24:17.342Z,17.40
2018-01-10T02:25:17.339Z,18.70
2018-01-10T02:26:17.327Z,16.30
2018-01-10T02:27:17.320Z,16.10
2018-01-10T02:28:17.318Z,17.00
2018-01-10T02:29:17.306Z,18.50
2018-01-10T02:30:17.303Z,18.80
2018-01-10T02:31:17.296Z,18.50
2018-01-10T02:32:17.290Z,16.30
2018-01-10T02:33:17.280Z,16.70
2018-01-10T02:34:17.274Z,18.50
2018-01-10T02:35:17.266Z,16.00
2018-01-10T02:36:17.259Z,15.60
2018-01-10T02:37:17.253Z,16.30
2018-01-10T02:38:17.241Z,15.80
2018-01-10T02:39:17.234Z,16.70
2018-01-10T02:40:17.227Z,16.50
2018-01-10T02:41:17.219Z,16.30
2018-01-10T02:42:17.216Z,16.40
2018-01-10T02:43:17.210Z,16.50
2018-01-10T02:44:17.203Z,15.50
2018-01-10T02:45:17.194Z,17.60
2018-01-10T02:46:17.183Z,20.30
2018-01-10T02:47:17.176Z,15.70
2018-01-10T02:48:17.171Z,15.80
2018-01-10T02:49:17.161Z,16.70
2018-01-10T02:50:17.154Z,16.70
2018-01-10T02:51:17.147Z,15.90
2018-01-10T02:52:17.141Z,16.50
2018-01-10T02:53:17.133Z,15.80
2018-01-10T02:54:17.130Z,17.60
2018-01-10T02:55:17.123Z,17.30
2018-01-10T02:56:17.116Z,16.50
2018-01-10T02:57:17.109Z,16.30
2018-01-10T02:58:17.102Z,15.10
2018-01-10T02:59:17.095Z,15.90
2018-01-10T03:00:17.087Z,15.80
2018-01-10T03:01:17.129Z,15.40
2018-01-10T03:02:17.069Z,15.90
2018-01-10T03:03:17.061Z,16.00
2018-01-10T03:04:17.054Z,15.80
2018-01-10T03:05:17.046Z,15.40
2018-01-10T03:06:17.040Z,14.80
2018-01-10T03:07:17.033Z,15.80
2018-01-10T03:08:17.026Z,15.50
2018-01-10T03:09:17.017Z,15.60
2018-01-10T03:10:17.015Z,15.20
2018-01-10T03:11:17.008Z,17.60
2018-01-10T03:12:17.000Z,14.80
2018-01-10T03:13:16.994Z,14.90
2018-01-10T03:14:16.986Z,14.90
2018-01-10T03:15:16.980Z,15.10
2018-01-10T03:16:16.972Z,15.70
2018-01-10T03:17:16.964Z,14.70
2018-01-10T03:18:16.952Z,14.40
2018-01-10T03:19:16.946Z,14.40
2018-01-10T03:20:16.938Z,15.80
2018-01-10T03:21:16.930Z,15.20
2018-01-10T03:22:16.927Z,15.50
2018-01-10T03:23:16.918Z,15.10
2018-01-10T03:24:16.911Z,15.10
2018-01-10T03:25:16.902Z,14.70
2018-01-10T03:26:16.900Z,14.70
2018-01-10T03:27:16.893Z,14.30
2018-01-10T03:28:16.884Z,14.80
2018-01-10T03:29:16.877Z,14.90
2018-01-10T03:30:16.870Z,18.40
2018-01-10T03:31:16.865Z,15.70
2018-01-10T03:32:16.856Z,15.30
2018-01-10T03:33:16.848Z,15.40
2018-01-10T03:34:16.836Z,16.30
2018-01-10T03:35:16.829Z,15.40
2018-01-10T03:36:16.822Z,15.60
2018-01-10T03:37:16.814Z,15.60
2018-01-10T03:38:16.807Z,14.50
2018-01-10T03:39:16.799Z,15.20
2018-01-10T03:40:16.793Z,15.00
2018-01-10T03:41:16.785Z,16.10
2018-01-10T03:42:16.782Z,16.60
2018-01-10T03:43:16.778Z,16.40
2018-01-10T03:44:16.768Z,16.00
2018-01-10T03:45:16.761Z,14.90
2018-01-10T03:46:16.752Z,15.90
2018-01-10T03:47:16.747Z,14.80
2018-01-10T03:48:16.739Z,14.60
2018-01-10T03:49:16.736Z,14.80
2018-01-10T03:50:16.720Z,15.30
2018-01-10T03:51:16.713Z,16.40
2018-01-10T03:52:16.705Z,15.20
2018-01-10T03:53:16.698Z,16.00
2018-01-10T03:54:16.691Z,14.80
2018-01-10T03:55:16.685Z,15.80
2018-01-10T03:56:16.679Z,15.40
2018-01-10T03:57:16.671Z,14.20
2018-01-10T03:58:16.666Z,14.40
2018-01-10T03:59:16.662Z,15.20
2018-01-10T04:00:16.655Z,15.20
2018-01-10T04:01:16.644Z,14.90
2018-01-10T04:02:16.638Z,15.20
2018-01-10T04:03:16.630Z,15.70
2018-01-10T04:04:16.623Z,15.00
2018-01-10T04:05:16.615Z,14.70
2018-01-10T04:06:16.604Z,15.50
2018-01-10T04:07:16.597Z,16.40
2018-01-10T04:08:16.590Z,14.80
2018-01-10T04:09:16.584Z,14.30
2018-01-10T04:10:16.575Z,14.70
2018-01-10T04:11:16.568Z,14.50
2018-01-10T04:12:16.563Z,14.50
2018-01-10T04:13:16.553Z,15.90
2018-01-10T04:14:16.551Z,14.60
2018-01-10T04:15:16.544Z,15.50
2018-01-10T04:16:16.538Z,14.30
2018-01-10T04:17:16.529Z,14.90
2018-01-10T04:18:16.522Z,14.50
2018-01-10T04:19:16.516Z,14.00
2018-01-10T04:20:16.510Z,14.20
2018-01-10T04:21:16.502Z,14.70
2018-01-10T04:22:16.493Z,13.60
2018-01-10T04:23:16.484Z,14.80
2018-01-10T04:24:16.476Z,14.70
2018-01-10T04:25:16.469Z,13.60
2018-01-10T04:26:16.462Z,13.50
2018-01-10T04:27:16.455Z,13.90
2018-01-10T04:28:16.448Z,14.30
2018-01-10T04:29:16.440Z,14.60
2018-01-10T04:30:16.438Z,13.40
2018-01-10T04:31:16.431Z,13.50
2018-01-10T04:32:16.424Z,13.00
2018-01-10T04:33:16.417Z,13.00
2018-01-10T04:34:16.410Z,13.50
2018-01-10T04:35:16.407Z,12.90
2018-01-10T04:36:16.399Z,13.60
2018-01-10T04:37:16.390Z,13.60
2018-01-10T04:38:16.378Z,13.70
2018-01-10T04:39:16.371Z,13.40
2018-01-10T04:40:16.364Z,12.60
2018-01-10T04:41:16.358Z,13.20
2018-01-10T04:42:16.350Z,13.10
2018-01-10T04:43:16.343Z,13.00
2018-01-10T04:44:16.336Z,12.50
2018-01-10T04:45:16.329Z,12.60
2018-01-10T04:46:16.326Z,13.80
2018-01-10T04:47:16.321Z,13.10
2018-01-10T04:48:16.312Z,13.60
2018-01-10T04:49:16.304Z,13.10
2018-01-10T04:50:16.294Z,13.00
2018-01-10T04:51:16.288Z,13.60
2018-01-10T04:52:16.280Z,13.70
2018-01-10T04:53:16.274Z,12.50
2018-01-10T04:54:16.270Z,13.20
2018-01-10T04:55:16.264Z,13.00
2018-01-10T04:56:16.257Z,12.90
2018-01-10T04:57:16.250Z,12.60
2018-01-10T04:58:16.241Z,12.30
2018-01-10T04:59:16.235Z,13.20
2018-01-10T05:00:16.229Z,13.10
2018-01-10T05:01:16.221Z,12.80
2018-01-10T05:02:16.211Z,12.90
2018-01-10T05:03:16.204Z,12.80
2018-01-10T05:04:16.198Z,14.00
2018-01-10T05:05:16.194Z,12.90
2018-01-10T05:06:16.183Z,13.80
2018-01-10T05:07:16.176Z,13.10
2018-01-10T05:08:16.168Z,13.10
2018-01-10T05:09:16.160Z,12.80
2018-01-10T05:10:16.157Z,13.50
2018-01-10T05:11:16.151Z,13.70
2018-01-10T05:12:16.144Z,12.70
2018-01-10T05:13:16.136Z,13.00
2018-01-10T05:14:16.130Z,12.50
2018-01-10T05:15:16.125Z,13.50
2018-01-10T05:16:16.117Z,12.70
2018-01-10T05:17:16.110Z,13.20
2018-01-10T05:18:16.098Z,13.30
2018-01-10T05:19:16.091Z,13.70
2018-01-10T05:20:16.087Z,13.00
2018-01-10T05:21:16.077Z,14.00
2018-01-10T05:22:16.110Z,13.90
2018-01-10T05:23:16.064Z,13.70
2018-01-10T05:24:16.057Z,13.40
2018-01-10T05:25:16.049Z,14.90
2018-01-10T05:26:16.046Z,13.60
2018-01-10T05:27:16.040Z,13.20
2018-01-10T05:28:16.035Z,13.60
2018-01-10T05:29:16.026Z,13.30
2018-01-10T05:30:16.019Z,13.40
2018-01-10T05:31:16.012Z,13.60
2018-01-10T05:32:16.006Z,13.80
2018-01-10T05:33:15.998Z,13.40
2018-01-10T05:34:15.987Z,13.20
2018-01-10T05:35:15.980Z,13.70
2018-01-10T05:36:15.974Z,13.90
2018-01-10T05:37:15.966Z,13.90
2018-01-10T05:38:15.961Z,13.80
2018-01-10T05:39:15.952Z,12.20
2018-01-10T05:40:15.945Z,13.10
2018-01-10T05:41:15.938Z,12.90
2018-01-10T05:42:15.936Z,12.70
2018-01-10T05:43:15.930Z,13.50
2018-01-10T05:44:15.922Z,14.20
2018-01-10T05:45:15.914Z,13.40
2018-01-10T05:46:15.909Z,13.10
2018-01-10T05:47:15.902Z,12.80
2018-01-10T05:48:15.895Z,12.70
2018-01-10T05:49:15.888Z,13.60
2018-01-10T05:50:15.876Z,13.10
2018-01-10T05:51:15.870Z,13.50
2018-01-10T05:52:15.863Z,12.80
2018-01-10T05:53:15.856Z,12.80
2018-01-10T05:54:15.853Z,14.20
2018-01-10T05:55:15.846Z,13.10
2018-01-10T05:56:15.840Z,12.80
2018-01-10T05:57:15.832Z,12.50
2018-01-10T05:58:15.821Z,12.50
2018-01-10T05:59:15.814Z,12.50
2018-01-10T06:00:15.808Z,13.20
2018-01-10T06:01:15.800Z,12.90
2018-01-10T06:02:15.793Z,12.50
2018-01-10T06:03:15.788Z,12.70
2018-01-10T06:04:15.781Z,12.40
2018-01-10T06:05:15.772Z,12.30
2018-01-10T06:06:15.769Z,12.50
2018-01-10T06:07:15.763Z,12.40
2018-01-10T06:08:15.756Z,12.10
2018-01-10T06:09:15.748Z,12.50
2018-01-10T06:10:15.741Z,12.00
2018-01-10T06:11:15.735Z,12.40
2018-01-10T06:12:15.728Z,11.80
2018-01-10T06:13:15.721Z,13.00
2018-01-10T06:14:15.711Z,12.70
2018-01-10T06:15:15.702Z,12.40
2018-01-10T06:16:15.696Z,12.30
2018-01-10T06:17:15.689Z,12.60
2018-01-10T06:18:15.683Z,12.80
2018-01-10T06:19:15.675Z,13.30
2018-01-10T06:20:15.686Z,13.20
2018-01-10T06:21:15.660Z,12.80
2018-01-10T06:22:15.657Z,13.30
2018-01-10T06:23:15.650Z,13.40
2018-01-10T06:24:15.644Z,13.70
2018-01-10T06:25:15.636Z,12.90
2018-01-10T06:26:15.630Z,11.80
2018-01-10T06:27:15.623Z,11.00
2018-01-10T06:28:15.616Z,12.00
2018-01-10T06:29:15.610Z,12.30
2018-01-10T06:30:15.597Z,11.90
2018-01-10T06:31:15.592Z,12.00
2018-01-10T06:32:15.584Z,11.80
2018-01-10T06:33:15.577Z,11.80
2018-01-10T06:34:15.569Z,12.30
2018-01-10T06:35:15.562Z,11.30
2018-01-10T06:36:15.555Z,12.30
2018-01-10T06:37:15.549Z,11.50
2018-01-10T06:38:15.546Z,12.20
2018-01-10T06:39:15.538Z,11.60
2018-01-10T06:40:15.532Z,13.30
2018-01-10T06:41:15.524Z,11.70
2018-01-10T06:42:15.516Z,11.70
2018-01-10T06:43:15.511Z,11.70
2018-01-10T06:44:15.503Z,12.10
2018-01-10T06:45:15.495Z,12.30
2018-01-10T06:46:15.484Z,12.40
2018-01-10T06:47:15.477Z,11.90
2018-01-10T06:48:15.471Z,12.00
2018-01-10T06:49:15.463Z,12.90
2018-01-10T06:50:15.456Z,12.60
2018-01-10T06:51:15.449Z,12.80
2018-01-10T06:52:15.442Z,12.20
2018-01-10T06:53:15.434Z,12.40
2018-01-10T06:54:15.432Z,13.80
2018-01-10T06:55:15.425Z,12.90
2018-01-10T06:56:15.418Z,13.10
2018-01-10T06:57:15.411Z,13.10
2018-01-10T06:58:15.399Z,14.10
2018-01-10T06:59:15.393Z,14.50
2018-01-10T07:00:15.386Z,13.70
2018-01-10T07:01:15.379Z,14.00
2018-01-10T07:02:15.376Z,13.80
2018-01-10T07:03:15.369Z,14.00
2018-01-10T07:04:15.361Z,13.50
2018-01-10T07:05:15.353Z,13.70
2018-01-10T07:06:15.346Z,12.90
2018-01-10T07:07:15.342Z,13.70
2018-01-10T07:08:15.336Z,12.30
2018-01-10T07:09:15.325Z,13.00
2018-01-10T07:10:15.314Z,12.70
2018-01-10T07:11:15.305Z,12.10
2018-01-10T07:12:15.298Z,12.50
2018-01-10T07:13:15.292Z,11.80
2018-01-10T07:14:15.283Z,12.50
2018-01-10T07:15:15.276Z,11.60
2018-01-10T07:16:15.269Z,11.60
2018-01-10T07:17:15.262Z,11.90
2018-01-10T07:18:15.262Z,12.40
2018-01-10T07:19:15.251Z,12.10
2018-01-10T07:20:15.244Z,13.40
2018-01-10T07:21:15.236Z,15.60
2018-01-10T07:22:15.230Z,12.20
2018-01-10T07:23:15.222Z,11.70
2018-01-10T07:24:15.214Z,11.70
2018-01-10T07:25:15.205Z,11.30
2018-01-10T07:26:15.194Z,12.30
2018-01-10T07:27:15.187Z,11.90
2018-01-10T07:28:15.180Z,11.10
2018-01-10T07:29:15.171Z,12.10
2018-01-10T07:30:15.164Z,11.70
2018-01-10T07:31:15.156Z,12.10
2018-01-10T07:32:15.149Z,11.90
2018-01-10T07:33:15.141Z,11.70
2018-01-10T07:34:15.138Z,12.70
2018-01-10T07:35:15.131Z,11.40
2018-01-10T07:36:15.123Z,12.40
2018-01-10T07:37:15.115Z,11.40
2018-01-10T07:38:15.108Z,11.90
2018-01-10T07:39:15.100Z,12.00
2018-01-10T07:40:15.093Z,11.10
2018-01-10T07:41:15.085Z,11.30
2018-01-10T07:42:15.073Z,11.60
2018-01-10T07:43:15.067Z,11.40
2018-01-10T07:44:15.058Z,11.50
2018-01-10T07:45:15.050Z,11.90
2018-01-10T07:46:15.043Z,11.40
2018-01-10T07:47:15.036Z,12.30
2018-01-10T07:48:15.029Z,11.20
2018-01-10T07:49:15.021Z,10.90
2018-01-10T07:50:15.018Z,11.50
2018-01-10T07:51:15.011Z,12.20
2018-01-10T07:52:15.003Z,11.70
2018-01-10T07:53:14.996Z,10.80
2018-01-10T07:54:14.987Z,11.20
2018-01-10T07:55:14.981Z,10.60
2018-01-10T07:56:14.974Z,10.70
2018-01-10T07:57:14.965Z,11.00
2018-01-10T07:58:14.953Z,10.80
2018-01-10T07:59:14.948Z,10.50
2018-01-10T08:00:14.939Z,10.30
2018-01-10T08:01:14.931Z,10.70
2018-01-10T08:02:14.928Z,10.50
2018-01-10T08:03:14.922Z,10.60
2018-01-10T08:04:14.914Z,9.90
2018-01-10T08:05:14.906Z,11.00
2018-01-10T08:06:14.894Z,10.60
2018-01-10T08:07:14.888Z,10.50
2018-01-10T08:08:14.880Z,10.10
2018-01-10T08:09:14.874Z,10.60
2018-01-10T08:10:14.868Z,10.30
2018-01-10T08:11:14.860Z,9.90
2018-01-10T08:12:14.853Z,10.20
2018-01-10T08:13:14.844Z,10.10
2018-01-10T08:14:14.842Z,10.40
2018-01-10T08:15:14.835Z,10.10
2018-01-10T08:16:14.828Z,10.00
2018-01-10T08:17:14.820Z,11.20
2018-01-10T08:18:14.813Z,10.50
2018-01-10T08:19:14.806Z,10.70
2018-01-10T08:20:14.800Z,10.00
2018-01-10T08:21:14.792Z,8.50
2018-01-10T08:22:14.826Z,8.10
2018-01-10T08:23:14.774Z,8.70
2018-01-10T08:24:14.767Z,8.60
2018-01-10T08:25:14.759Z,8.60
2018-01-10T08:26:14.796Z,8.70
2018-01-10T08:27:14.746Z,7.90
2018-01-10T08:28:14.748Z,8.00
2018-01-10T08:29:14.741Z,9.00
2018-01-10T08:30:14.741Z,8.40
2018-01-10T08:31:14.722Z,8.30
2018-01-10T08:32:14.716Z,7.90
2018-01-10T08:33:14.708Z,7.80
2018-01-10T08:34:14.706Z,8.10
2018-01-10T08:35:14.695Z,8.80
2018-01-10T08:36:14.692Z,8.70
2018-01-10T08:37:14.679Z,8.70
2018-01-10T08:38:14.672Z,8.50
2018-01-10T08:39:14.662Z,9.10
2018-01-10T08:40:14.656Z,8.60
2018-01-10T08:41:14.648Z,9.10
2018-01-10T08:42:14.642Z,9.20
2018-01-10T08:43:14.634Z,8.40
2018-01-10T08:44:14.629Z,8.10
2018-01-10T08:45:14.620Z,8.80
2018-01-10T08:46:14.618Z,8.90
2018-01-10T08:47:14.610Z,9.30
2018-01-10T08:48:14.605Z,9.00
2018-01-10T08:49:14.596Z,8.80
2018-01-10T08:50:14.593Z,8.90
2018-01-10T08:51:14.583Z,9.40
2018-01-10T08:52:14.576Z,8.30
2018-01-10T08:53:14.568Z,10.40
2018-01-10T08:54:14.558Z,9.10
2018-01-10T08:55:14.551Z,9.50
2018-01-10T08:56:14.548Z,8.70
2018-01-10T08:57:14.538Z,9.50
2018-01-10T08:58:14.530Z,9.10
2018-01-10T08:59:14.524Z,8.60
2018-01-10T09:00:14.518Z,10.40
2018-01-10T09:01:14.510Z,8.70
2018-01-10T09:02:14.508Z,9.20
2018-01-10T09:03:14.500Z,8.80
2018-01-10T09:04:14.494Z,8.70
2018-01-10T09:05:14.487Z,9.10
2018-01-10T09:06:14.478Z,8.50
2018-01-10T09:07:14.470Z,9.10
2018-01-10T09:08:14.463Z,9.10
2018-01-10T09:09:14.457Z,10.10
2018-01-10T09:10:14.454Z,8.70
2018-01-10T09:11:14.447Z,8.90
2018-01-10T09:12:14.446Z,8.70
2018-01-10T09:13:14.434Z,8.30
2018-01-10T09:14:14.427Z,8.50
2018-01-10T09:15:14.421Z,8.50
2018-01-10T09:16:14.415Z,8.10
2018-01-10T09:17:14.408Z,8.40
2018-01-10T09:18:14.399Z,8.00
2018-01-10T09:19:14.391Z,9.30
2018-01-10T09:20:14.435Z,8.70
2018-01-10T09:21:14.381Z,8.30
2018-01-10T09:22:14.372Z,9.20
2018-01-10T09:23:14.367Z,8.60
2018-01-10T09:24:14.361Z,9.60
2018-01-10T09:25:14.354Z,9.00
2018-01-10T09:26:14.350Z,9.60
2018-01-10T09:27:14.344Z,8.30
2018-01-10T09:28:14.339Z,9.50
2018-01-10T09:29:14.334Z,8.00
2018-01-10T09:30:14.325Z,9.20
2018-01-10T09:31:14.318Z,8.90
2018-01-10T09:32:14.312Z,9.00
2018-01-10T09:33:14.305Z,8.30
2018-01-10T09:34:14.295Z,8.30
2018-01-10T09:35:14.290Z,8.90
2018-01-10T09:36:14.288Z,7.80
2018-01-10T09:37:14.276Z,8.80
2018-01-10T09:38:14.269Z,8.50
2018-01-10T09:39:14.294Z,8.30
2018-01-10T09:40:14.258Z,8.70
2018-01-10T09:41:14.250Z,8.40
2018-01-10T09:42:14.249Z,8.40
2018-01-10T09:43:14.243Z,8.70
2018-01-10T09:44:14.237Z,8.70
2018-01-10T09:45:14.229Z,8.20
2018-01-10T09:46:14.223Z,9.20
2018-01-10T09:47:14.218Z,8.10
2018-01-10T09:48:14.216Z,8.70
2018-01-10T09:49:14.206Z,11.30
2018-01-10T09:50:14.193Z,8.70
2018-01-10T09:51:14.187Z,7.90
2018-01-10T09:52:14.181Z,9.90
2018-01-10T09:53:14.174Z,8.30
2018-01-10T09:54:14.171Z,9.90
2018-01-10T09:55:14.162Z,9.70
2018-01-10T09:56:14.156Z,8.50
2018-01-10T09:57:14.148Z,8.70
2018-01-10T09:58:14.148Z,7.80
2018-01-10T09:59:14.142Z,8.20
2018-01-10T10:00:14.137Z,8.40
2018-01-10T10:01:14.127Z,8.70
2018-01-10T10:02:14.123Z,9.00
2018-01-10T10:03:14.116Z,9.30
2018-01-10T10:04:14.109Z,8.40
2018-01-10T10:05:14.102Z,8.60
2018-01-10T10:06:14.094Z,9.10
2018-01-10T10:07:14.086Z,8.20
2018-01-10T10:08:14.105Z,9.40
2018-01-10T10:09:14.073Z,9.10
2018-01-10T10:10:14.072Z,9.90
2018-01-10T10:11:14.067Z,8.30
2018-01-10T10:12:14.060Z,9.10
2018-01-10T10:13:14.053Z,8.40
2018-01-10T10:14:14.044Z,8.10
2018-01-10T10:15:14.037Z,8.50
2018-01-10T10:16:14.032Z,8.20
2018-01-10T10:17:14.025Z,8.60
2018-01-10T10:18:14.020Z,7.50
2018-01-10T10:19:14.013Z,8.80
2018-01-10T10:20:14.007Z,7.80
2018-01-10T10:21:14.000Z,8.10
2018-01-10T10:22:14.004Z,8.10
2018-01-10T10:23:13.993Z,7.80
2018-01-10T10:24:14.034Z,8.90
2018-01-10T10:25:13.982Z,9.50
2018-01-10T10:26:13.974Z,9.50
2018-01-10T10:27:13.968Z,10.30
2018-01-10T10:28:13.961Z,8.50
2018-01-10T10:29:13.954Z,9.70
2018-01-10T10:30:13.944Z,9.70
2018-01-10T10:31:13.938Z,9.90
2018-01-10T10:32:13.932Z,9.50
2018-01-10T10:33:13.926Z,9.80
2018-01-10T10:34:13.918Z,8.80
2018-01-10T10:35:13.913Z,10.00
2018-01-10T10:36:13.907Z,9.90
2018-01-10T10:37:13.900Z,10.40
2018-01-10T10:38:13.898Z,9.90
2018-01-10T10:39:13.892Z,10.00
2018-01-10T10:40:13.886Z,8.70
2018-01-10T10:41:13.880Z,9.10
2018-01-10T10:42:13.873Z,9.10
2018-01-10T10:43:13.867Z,8.90
2018-01-10T10:44:13.861Z,10.00
2018-01-10T10:45:13.854Z,9.30
2018-01-10T10:46:13.847Z,9.30
2018-01-10T10:47:13.839Z,8.80
2018-01-10T10:48:13.832Z,10.40
2018-01-10T10:49:13.825Z,9.70
2018-01-10T10:50:13.821Z,9.50
2018-01-10T10:51:13.816Z,9.30
2018-01-10T10:52:13.809Z,9.10
2018-01-10T10:53:13.801Z,9.80
2018-01-10T10:54:13.800Z,9.20
2018-01-10T10:55:13.795Z,9.90
2018-01-10T10:56:13.789Z,10.80
2018-01-10T10:57:13.782Z,10.50
2018-01-10T10:58:13.778Z,9.70
2018-01-10T10:59:13.772Z,10.60
2018-01-10T11:00:13.765Z,10.50
2018-01-10T11:01:13.760Z,10.00
2018-01-10T11:02:13.750Z,10.20
2018-01-10T11:03:13.745Z,9.70
2018-01-10T11:04:13.739Z,10.50
2018-01-10T11:05:13.732Z,9.90
2018-01-10T11:06:13.728Z,11.10
2018-01-10T11:07:13.723Z,10.80
2018-01-10T11:08:13.717Z,11.80
2018-01-10T11:09:13.710Z,11.10
2018-01-10T11:10:13.709Z,10.80
2018-01-10T11:11:13.703Z,10.60
2018-01-10T11:12:13.698Z,10.40
2018-01-10T11:13:13.694Z,10.50
2018-01-10T11:14:13.682Z,11.30
2018-01-10T11:15:13.676Z,10.60
2018-01-10T11:16:13.673Z,10.90
2018-01-10T11:17:13.666Z,12.00
2018-01-10T11:18:13.665Z,11.40
2018-01-10T11:19:13.663Z,11.70
2018-01-10T11:20:13.657Z,12.10
2018-01-10T11:21:13.649Z,12.40
2018-01-10T11:22:13.659Z,12.80
2018-01-10T11:23:13.640Z,11.20
2018-01-10T11:24:13.636Z,12.90
2018-01-10T11:25:13.631Z,11.20
2018-01-10T11:26:13.622Z,11.10
2018-01-10T11:27:13.616Z,11.70
2018-01-10T11:28:13.613Z,11.90
2018-01-10T11:29:13.608Z,12.20
2018-01-10T11:30:13.604Z,11.30
2018-01-10T11:31:13.599Z,11.90
2018-01-10T11:32:13.596Z,12.70
2018-01-10T11:33:13.591Z,11.50
2018-01-10T11:34:13.589Z,11.00
2018-01-10T11:35:13.584Z,11.00
2018-01-10T11:36:13.581Z,9.30
2018-01-10T11:37:13.575Z,10.40
2018-01-10T11:38:13.570Z,11.20
2018-01-10T11:39:13.566Z,11.00
2018-01-10T11:40:13.563Z,11.50
2018-01-10T11:41:13.557Z,10.80
2018-01-10T11:42:13.548Z,12.80
2018-01-10T11:43:13.544Z,10.80
2018-01-10T11:44:13.538Z,13.10
2018-01-10T11:45:13.533Z,11.00
2018-01-10T11:46:13.529Z,12.40
2018-01-10T11:47:13.524Z,11.40
2018-01-10T11:48:13.520Z,11.70
2018-01-10T11:49:13.515Z,11.80
2018-01-10T11:50:13.515Z,12.40
2018-01-10T11:51:13.511Z,12.90
2018-01-10T11:52:13.507Z,13.10
2018-01-10T11:53:13.502Z,12.30
2018-01-10T11:54:13.500Z,10.90
2018-01-10T11:55:13.494Z,11.60
2018-01-10T11:56:13.488Z,12.10
2018-01-10T11:57:13.483Z,10.70
2018-01-10T11:58:13.475Z,11.60
2018-01-10T11:59:13.470Z,12.50
2018-01-10T12:00:13.466Z,11.00
2018-01-10T12:01:13.461Z,10.70
2018-01-10T12:02:13.457Z,14.40
2018-01-10T12:03:13.452Z,11.40
2018-01-10T12:04:13.446Z,10.60
2018-01-10T12:05:13.443Z,12.30
2018-01-10T12:06:13.441Z,11.60
2018-01-10T12:07:13.436Z,10.60
2018-01-10T12:08:13.432Z,10.50
2018-01-10T12:09:13.427Z,12.10
2018-01-10T12:10:13.421Z,11.40
2018-01-10T12:11:13.445Z,10.80
2018-01-10T12:12:13.411Z,11.10
2018-01-10T12:13:13.405Z,12.10
2018-01-10T12:14:13.396Z,11.80
2018-01-10T12:15:13.391Z,11.70
2018-01-10T12:16:13.386Z,11.10
2018-01-10T12:17:13.380Z,10.80
2018-01-10T12:18:13.375Z,10.90
2018-01-10T12:19:13.371Z,12.40
2018-01-10T12:20:13.366Z,10.90
2018-01-10T12:21:13.361Z,11.70
2018-01-10T12:22:13.363Z,12.70
2018-01-10T12:23:13.354Z,10.90
2018-01-10T12:24:13.350Z,11.70
2018-01-10T12:25:13.344Z,10.60
2018-01-10T12:26:13.337Z,12.90
2018-01-10T12:27:13.332Z,12.10
2018-01-10T12:28:13.327Z,11.20
2018-01-10T12:29:13.321Z,11.90
2018-01-10T12:30:13.312Z,11.50
2018-01-10T12:31:13.309Z,11.00
2018-01-10T12:32:13.302Z,10.60
2018-01-10T12:33:13.295Z,11.20
2018-01-10T12:34:13.292Z,11.30
2018-01-10T12:35:13.285Z,10.50
2018-01-10T12:36:13.282Z,11.40
2018-01-10T12:37:13.274Z,11.20
2018-01-10T12:38:13.310Z,11.80
2018-01-10T12:39:13.267Z,11.40
2018-01-10T12:40:13.262Z,10.90
2018-01-10T12:41:13.256Z,13.60
2018-01-10T12:42:13.252Z,11.20
2018-01-10T12:43:13.246Z,11.10
2018-01-10T12:44:13.240Z,11.50
2018-01-10T12:45:13.236Z,11.20
2018-01-10T12:46:13.226Z,11.30
2018-01-10T12:47:13.220Z,11.60
2018-01-10T12:48:13.214Z,11.30
2018-01-10T12:49:13.209Z,11.80
2018-01-10T12:50:13.202Z,11.40
2018-01-10T12:51:13.198Z,12.20
2018-01-10T12:52:13.193Z,17.20
2018-01-10T12:53:13.185Z,12.00
2018-01-10T12:54:13.184Z,11.70
2018-01-10T12:55:13.179Z,11.60
2018-01-10T12:56:13.175Z,12.00
2018-01-10T12:57:13.169Z,11.40